• Join FlightAware (Why Join?)
  • Login
  • US Flag 
12:04AM EDT


 

Airport Tracker/Info


-or-


 

Live Flight TrackerFlight Track Log ✈ UAL5844 ✈ 17-Apr-2013 ✈ KPIT - KORD

Flight Track Log - Related Links

Times and Time Zones

All times are in EDT time to prevent confusion due to time zone crossing. See the UAL5844 flight status page for this flight to view local times or setup timezone preferences in your user account.

Time Position Orientation Groundspeed Altitude Reporting Facility
EDT Latitude Longitude Course Direction KTS MPH feet Rate Location/Type
07:38PM 40.5417 -80.1950 279° West 243 280 4,400  Level Cleveland Center
07:39PM 40.5544 -80.2661 283° West 238 274 7,000 2,220 Climbing Cleveland Center
07:40PM 40.5714 -80.3561 284° West 244 281 8,900 1,860 Climbing Cleveland Center
07:41PM 40.5883 -80.4547 283° West 256 295 10,800 1,920 Climbing Cleveland Center
07:42PM 40.6335 -80.9340 288° West  Level FlightAware Approximate
07:42PM 40.6028 -80.5694 279° West 283 326 12,800  Level Cleveland Center
07:43PM 40.6568 -81.0541 279° West  Level FlightAware Approximate
07:43PM 40.6175 -80.6569 283° West 288 331 13,800  Level Cleveland Center
07:44PM 40.6383 -80.7636 284° West 293 337 14,900 1,020 Climbing Cleveland Center
07:45PM 40.6567 -80.8814 282° West 311 358 15,900 1,140 Climbing Cleveland Center
07:46PM 40.6750 -81.0019 281° West 330 380 17,200 2,100 Climbing Cleveland Center
07:47PM 40.6892 -81.1117 280° West 327 376 20,100 2,460 Climbing Cleveland Center
07:48PM 40.7056 -81.2075 283° West 283 326 22,200 1,560 Climbing Cleveland Center
07:49PM 40.7214 -81.3119 281° West 273 314 23,300 1,080 Climbing Cleveland Center
07:50PM 40.7353 -81.4106 281° West 273 314 24,400 840 Climbing Cleveland Center
07:51PM 40.7658 -81.5125 292° West 285 328 25,000 300 Climbing Cleveland Center
07:52PM 40.8003 -81.6253 292° West 310 357 25,000  Level Cleveland Center
07:53PM 40.8389 -81.7442 293° West 343 395 25,000  Level Cleveland Center
07:54PM 40.8811 -81.8711 294° West 369 425 25,000  Level Cleveland Center
07:55PM 40.9214 -82.0011 292° West 380 437 25,000  Level Cleveland Center
07:56PM 40.9575 -82.1172 292° West 380 437 25,000  Level Cleveland Center
07:57PM 40.9992 -82.2503 293° West 380 437 25,000  Level Cleveland Center
07:58PM 41.0431 -82.3836 294° West 386 444 25,000  Level Cleveland Center
07:59PM 41.1122 -82.4986 309° West 399 459 25,000  Level Cleveland Center
08:00PM 41.2083 -82.5953 323° Northwest 399 459 25,000  Level Cleveland Center
08:01PM 41.2883 -82.6778 322° Northwest 380 437 25,000  Level Cleveland Center
08:02PM 41.3703 -82.7581 324° Northwest 370 426 25,000  Level Cleveland Center
08:03PM 41.4561 -82.8467 322° Northwest 370 426 25,000  Level Cleveland Center
08:04PM 41.5378 -82.9300 323° Northwest 376 433 25,000  Level Cleveland Center
08:05PM 41.6133 -83.0078 322° Northwest 363 418 25,000  Level Cleveland Center
08:06PM 41.6867 -83.0856 322° Northwest 349 402 25,000  Level Cleveland Center
08:07PM 41.7661 -83.1667 323° Northwest 349 402 25,000  Level Cleveland Center
08:08PM 41.8436 -83.2450 323° Northwest 349 402 25,000  Level Cleveland Center
08:09PM 41.9128 -83.3178 322° Northwest 349 402 25,000  Level Cleveland Center
08:10PM 41.9919 -83.3994 323° Northwest 354 407 25,000  Level Cleveland Center
08:11PM 42.0883 -83.4736 330° Northwest 360 414 25,000  Level Cleveland Center
08:12PM 42.1814 -83.4975 349° North 369 425 25,000  Level Cleveland Center
08:13PM 42.2828 -83.5331 345° North 379 436 25,000  Level Cleveland Center
08:14PM 42.3839 -83.5658 347° North 352 405 25,000  Level Cleveland Center
08:15PM 42.4708 -83.5897 349° North 347 399 25,000  Level Cleveland Center
08:16PM 42.5681 -83.6225 346° North 347 399 25,000  Level Cleveland Center
08:17PM 42.6672 -83.6528 347° North 359 413 25,000  Level Cleveland Center
08:18PM 42.7686 -83.6858 347° North 364 419 25,000  Level Cleveland Center
08:19PM 42.8697 -83.7192 346° North 370 426 25,000  Level Cleveland Center
08:20PM 42.9644 -83.7694 339° North 370 426 25,000  Level Cleveland Center
08:21PM 43.0114 -83.8714 302° West 331 381 25,000  Level Cleveland Center
08:22PM 43.0561 -83.9844 298° West 325 374 25,000  Level Cleveland Center
08:23PM 43.1047 -84.1067 299° West 339 390 25,000  Level Cleveland Center
08:24PM 43.1489 -84.2286 296° West 353 406 25,000  Level Cleveland Center
08:25PM 43.2008 -84.3628 298° West 358 412 25,000  Level Cleveland Center
08:26PM 43.2506 -84.4914 298° West 363 418 25,000  Level Cleveland Center
08:27PM 43.3003 -84.6256 297° West 378 435 25,000  Level Cleveland Center
08:29PM 43.4008 -84.8961 297° West 407 468 25,000  Level Minneapolis Center
08:30PM 43.4506 -85.0306 297° West 403 464 25,000  Level Minneapolis Center
08:31PM 43.5011 -85.1653 297° West 399 459 25,000  Level Minneapolis Center
08:32PM 43.5608 -85.3269 297° West 399 459 25,000  Level Minneapolis Center
08:33PM 43.6003 -85.4336 297° West 397 457 25,000  Level Minneapolis Center
08:34PM 43.6572 -85.5931 296° West 393 452 25,000  Level Minneapolis Center
08:35PM 43.7047 -85.7247 297° West 389 448 25,000  Level Minneapolis Center
08:36PM 43.7528 -85.8561 297° West 387 445 25,000  Level Minneapolis Center
08:37PM 43.8097 -86.0156 296° West 388 447 25,000  Level Minneapolis Center
08:38PM 43.8525 -86.1358 296° West 363 418 25,000  Level Minneapolis Center
08:39PM 43.8922 -86.2481 296° West 333 383 25,000  Level Minneapolis Center
08:40PM 43.9350 -86.3689 296° West 345 397 25,000  Level Minneapolis Center
08:41PM 43.9783 -86.4961 295° West 363 418 25,000  Level Minneapolis Center
08:42PM 44.0250 -86.6275 296° West 378 435 25,000  Level Minneapolis Center
08:43PM 44.0822 -86.7892 296° West 388 447 25,000  Level Minneapolis Center
08:44PM 44.1283 -86.9258 295° West 392 451 25,000  Level Minneapolis Center
08:45PM 44.1778 -87.0667 296° West 377 434 25,000  Level Minneapolis Center
08:46PM 44.2219 -87.1986 295° West 375 432 25,000  Level Minneapolis Center
08:47PM 44.2706 -87.3406 296° West 389 448 25,000 -540 Level Minneapolis Center
08:48PM 44.3172 -87.4781 295° West 392 451 24,000 -540 Descending Minneapolis Center
08:49PM 44.3628 -87.6142 295° West 388 447 24,000  Level Minneapolis Center
08:50PM 44.4089 -87.7503 295° West 388 447 24,000  Level Minneapolis Center
08:52PM 44.4572 -87.8978 295° West 360 414 24,000  Level Minneapolis Center
08:53PM 44.4978 -88.0217 295° West 353 406 24,000  Level Minneapolis Center
08:54PM 44.5169 -88.1619 281° West 376 433 24,000  Level Minneapolis Center
08:55PM 44.4658 -88.2683 236° Southwest 338 389 24,000  Level Minneapolis Center
08:56PM 44.3917 -88.3297 211° Southwest 312 359 24,000  Level Minneapolis Center
08:57PM 44.3047 -88.4036 211° Southwest 313 360 24,000  Level Minneapolis Center
08:58PM 44.2411 -88.4556 210° Southwest 316 364 24,000  Level Minneapolis Center
08:59PM 44.1525 -88.5278 210° Southwest 317 365 24,000  Level Minneapolis Center
09:00PM 44.0664 -88.5994 211° Southwest 311 358 24,000 -480 Level Minneapolis Center
09:01PM 43.9864 -88.6642 210° Southwest 328 377 23,100 -1,200 Descending Minneapolis Center
09:02PM 43.9047 -88.7303 210° Southwest 338 389 21,400 -1,680 Descending Minneapolis Center
09:03PM 43.8150 -88.8033 210° Southwest 324 373 19,300 -2,040 Descending Minneapolis Center
09:04PM 43.7239 -88.8783 211° Southwest 328 377 17,200 -1,920 Descending Minneapolis Center
09:05PM 43.6497 -88.9378 210° Southwest 316 364 15,400 -1,320 Descending Minneapolis Center
09:06PM 43.6136 -88.9672 211° Southwest 306 352 15,100 -240 Descending Chicago Center
09:07PM 43.5328 -89.0322 210° Southwest 293 337 15,100 -720 Level Chicago Center
09:08PM 43.4628 -89.0878 210° Southwest 292 336 13,700 -1,080 Descending Chicago Center
09:09PM 43.3925 -89.1436 210° Southwest 292 336 13,000 -360 Descending Chicago Center
09:10PM 43.3217 -89.2014 211° Southwest 296 341 13,000  Level Chicago Center
09:11PM 43.2456 -89.2606 210° Southwest 311 358 13,000  Level Chicago Center
09:12PM 43.1753 -89.3158 210° Southwest 297 342 13,000  Level Chicago Center
09:13PM 43.0919 -89.3178 181° South 316 364 13,000  Level Chicago Center
09:14PM 42.9917 -89.2794 164° South 322 371 13,000  Level Chicago Center
09:15PM 42.9072 -89.2447 163° South 317 365 13,000  Level Chicago Center
09:16PM 42.8256 -89.2117 163° South 309 356 13,000 -600 Level Chicago Center
09:17PM 42.7467 -89.1800 164° South 299 344 11,900 -1,020 Descending Chicago Center
09:18PM 42.6719 -89.1514 164° South 284 327 11,000 -480 Descending Chicago Center
09:19PM 42.5969 -89.1208 163° South 281 323 11,000  Level Chicago Center
09:20PM 42.5392 -89.0442 136° Southeast 313 360 11,000 -120 Level Chicago Center
09:21PM 42.5072 -88.9358 112° Southeast 312 359 10,800 -840 Descending Chicago Center
09:22PM 42.4711 -88.8172 112° Southeast 296 341 9,400 -900 Descending Chicago Center
09:23PM 42.4442 -88.7286 112° Southeast 262 302 9,000 -240 Descending Chicago Center
09:24PM 42.4183 -88.6433 112° Southeast 249 287 9,000  Level Chicago Center
09:25PM 42.3883 -88.5508 114° Southeast 261 300 9,000 -120 Level Chicago Center
09:26PM 42.3611 -88.4625 113° Southeast 261 300 8,800 -540 Descending Chicago Center
09:27PM 42.3269 -88.3756 118° Southeast 256 295 8,000 -720 Descending Chicago Center
09:28PM 42.2950 -88.3031 121° Southeast 235 270 7,400 -540 Descending Chicago Center
09:29PM 42.2628 -88.2356 123° Southeast 222 255 7,000 -480 Descending Chicago Center
09:30PM 42.2181 -88.1928 145° Southeast 201 231 6,500 -780 Descending Chicago Center
09:31PM 42.1756 -88.1444 140° Southeast 200 230 5,500 -1,020 Descending Chicago Center
09:32PM 42.1367 -88.0986 139° Southeast 190 219 4,500 -1,200 Descending Chicago Center
09:33PM 42.1167 -88.0833 150° Southeast 185 213 4,000 -1,200 Descending Chicago TRACON
09:34PM 42.0833 -88.0333 132° Southeast 191 220 3,000 -960 Descending Chicago TRACON
09:35PM 42.0333 -87.9833 143° Southeast 161 185 2,100 -780 Descending Chicago TRACON
09:36PM 42.0167 -87.9667 143° Southeast 111 128 1,400 -720 Descending Chicago TRACON
09:37PM 42.0000 -87.9333 124° Southeast 118 136 800 -720 Descending Chicago TRACON
09:39PM 41.9817 -87.9067 180° South  Level Estimated